^^
Saratoga-Weather Station Historical Data
Daily Summary for April 2, 2020 Units:  Metric    English   Both
Daily Weekly Monthly Yearly Custom
  High: Low: Average:
Temperature: 14.1 °C 5.8 °C 9.7 °C
Dew Point: 7.5 °C 4.2 °C 5.9 °C
Humidity: 92% 54% 79%
Wind Speed: 30.6km/h 0km/h 5.9km/h
Wind Gust: 30.6km/h - -
Wind- - West
Pressure: 1015.2 hPa 1005.8 hPa -
Precipitation: 0.2 mm    
Historical Graphs
 
 
Tabular Data for April 2, 2020
Time Temperature Dew Point Pressure Wind Wind Speed Wind Gust Humidity Rainfall Rate (Hourly) solar
00:00 8.4 °C 7 °C 1005.8 hPa West 1.4 km/h 6.4 km/h 91% 0.0 mm 0 W/m2
00:05 8.4 °C 7 °C 1006.1 hPa NW 6.4 km/h 6.4 km/h 91% 0.0 mm 0 W/m2
00:10 8.4 °C 7 °C 1006.1 hPa SSW 4.7 km/h 9.7 km/h 91% 0.0 mm 0 W/m2
00:15 8.6 °C 7.2 °C 1006.1 hPa WSW 9.7 km/h 12.9 km/h 91% 0.0 mm 0 W/m2
00:20 8.7 °C 7.2 °C 1006.1 hPa WSW 7.9 km/h 16.1 km/h 90% 0.0 mm 0 W/m2
00:25 8.8 °C 7.2 °C 1006.1 hPa West 6.4 km/h 6.4 km/h 90% 0.0 mm 0 W/m2
00:30 8.7 °C 7.2 °C 1006.1 hPa West 6.4 km/h 16.1 km/h 90% 0.0 mm 0 W/m2
00:36 8.6 °C 7.1 °C 1006.4 hPa West 6.4 km/h 6.4 km/h 90% 0.0 mm 0 W/m2
00:41 8.5 °C 7 °C 1006.4 hPa West 4.7 km/h 14.5 km/h 90% 0.0 mm 0 W/m2
00:46 8.4 °C 6.9 °C 1006.4 hPa WSW 7.9 km/h 8 km/h 90% 0.0 mm 0 W/m2
00:51 8.4 °C 6.9 °C 1006.4 hPa WSW 3.2 km/h 12.9 km/h 90% 0.0 mm 0 W/m2
00:56 8.3 °C 6.8 °C 1006.4 hPa WNW 3.2 km/h 6.4 km/h 90% 0.0 mm 0 W/m2
01:01 8.3 °C 6.8 °C 1006.8 hPa WNW 4.7 km/h 6.4 km/h 90% 0.0 mm 0 W/m2
01:06 8.2 °C 6.7 °C 1006.8 hPa WNW 4.7 km/h 11.3 km/h 90% 0.0 mm 0 W/m2
01:11 8.2 °C 6.7 °C 1006.8 hPa WNW 3.2 km/h 16.1 km/h 90% 0.0 mm 0 W/m2
01:16 8.1 °C 6.6 °C 1006.8 hPa West 3.2 km/h 3.2 km/h 90% 0.0 mm 0 W/m2
01:21 7.9 °C 6.4 °C 1006.8 hPa WNW 1.4 km/h 16.1 km/h 90% 0.0 mm 0 W/m2
01:26 7.8 °C 6.4 °C 1006.8 hPa WSW 1.4 km/h 6.4 km/h 91% 0.0 mm 0 W/m2
01:31 7.8 °C 6.4 °C 1006.8 hPa WSW 3.2 km/h 9.7 km/h 91% 0.0 mm 0 W/m2
01:36 7.7 °C 6.3 °C 1006.8 hPa WSW 3.2 km/h 3.2 km/h 91% 0.0 mm 0 W/m2
01:41 7.6 °C 6.2 °C 1006.8 hPa WSW 9.7 km/h 9.7 km/h 91% 0.0 mm 0 W/m2
01:46 7.6 °C 6.4 °C 1006.8 hPa West 1.4 km/h 6.4 km/h 92% 0.0 mm 0 W/m2
01:51 7.5 °C 6.3 °C 1006.8 hPa WSW 4.7 km/h 11.3 km/h 92% 0.0 mm 0 W/m2
01:56 7.5 °C 6.3 °C 1007.1 hPa WSW 3.2 km/h 12.9 km/h 92% 0.0 mm 0 W/m2
02:01 7.6 °C 6.4 °C 1007.1 hPa WSW 6.4 km/h 6.4 km/h 92% 0.0 mm 0 W/m2
02:06 7.6 °C 6.4 °C 1007.1 hPa SW 4.7 km/h 11.3 km/h 92% 0.0 mm 0 W/m2
02:11 7.5 °C 6.3 °C 1007.1 hPa WNW 1.4 km/h 14.5 km/h 92% 0.0 mm 0 W/m2
02:16 7.6 °C 6.4 °C 1007.1 hPa WNW 4.7 km/h 9.7 km/h 92% 0.0 mm 0 W/m2
02:21 7.6 °C 6.4 °C 1007.1 hPa West 3.2 km/h 14.5 km/h 92% 0.0 mm 0 W/m2
02:26 7.6 °C 6.2 °C 1007.1 hPa WNW 4.7 km/h 6.4 km/h 91% 0.0 mm 0 W/m2
02:31 7.6 °C 6.2 °C 1007.1 hPa WNW 4.7 km/h 12.9 km/h 91% 0.0 mm 0 W/m2
02:36 7.6 °C 6.2 °C 1007.1 hPa West 3.2 km/h 6.4 km/h 91% 0.0 mm 0 W/m2
02:41 7.5 °C 6.1 °C 1007.1 hPa SW 4.7 km/h 6.4 km/h 91% 0.0 mm 0 W/m2
02:46 7.4 °C 6 °C 1007.1 hPa WNW 1.4 km/h 6.4 km/h 91% 0.0 mm 0 W/m2
02:51 7.4 °C 6 °C 1007.5 hPa West 1.4 km/h 4.8 km/h 91% 0.0 mm 0 W/m2
02:56 7.3 °C 5.9 °C 1007.5 hPa WNW 1.4 km/h 3.2 km/h 91% 0.0 mm 0 W/m2
03:01 7.2 °C 5.8 °C 1007.5 hPa SSW 3.2 km/h 9.7 km/h 91% 0.0 mm 0 W/m2
03:06 7.1 °C 5.7 °C 1007.5 hPa WSW 1.4 km/h 11.3 km/h 91% 0.0 mm 0 W/m2
03:11 7.1 °C 5.7 °C 1007.5 hPa WNW 1.4 km/h 3.2 km/h 91% 0.0 mm 0 W/m2
03:16 6.9 °C 5.5 °C 1007.5 hPa SW 4.7 km/h 11.3 km/h 91% 0.0 mm 0 W/m2
03:21 6.9 °C 5.7 °C 1007.5 hPa SW 3.2 km/h 6.4 km/h 92% 0.0 mm 0 W/m2
03:27 6.8 °C 5.6 °C 1007.5 hPa ESE 1.4 km/h 11.3 km/h 92% 0.0 mm 0 W/m2
03:32 6.8 °C 5.4 °C 1007.5 hPa WNW 3.2 km/h 6.4 km/h 91% 0.0 mm 0 W/m2
03:37 6.7 °C 5.3 °C 1007.5 hPa SSW 1.4 km/h 6.4 km/h 91% 0.0 mm 0 W/m2
03:42 6.7 °C 5.3 °C 1007.8 hPa WSW 7.9 km/h 9.7 km/h 91% 0.0 mm 0 W/m2
03:47 6.7 °C 5.3 °C 1007.5 hPa WSW 6.4 km/h 8 km/h 91% 0.0 mm 0 W/m2
03:52 6.8 °C 5.4 °C 1007.8 hPa WSW 6.4 km/h 8 km/h 91% 0.0 mm 0 W/m2
03:57 6.8 °C 5.4 °C 1007.8 hPa South 4.7 km/h 12.9 km/h 91% 0.0 mm 0 W/m2
04:02 6.8 °C 5.3 °C 1007.8 hPa WSW 7.9 km/h 8 km/h 90% 0.0 mm 0 W/m2
04:07 6.7 °C 5.2 °C 1007.8 hPa West 6.4 km/h 9.7 km/h 90% 0.0 mm 0 W/m2
04:12 6.7 °C 5.2 °C 1007.8 hPa West 6.4 km/h 6.4 km/h 90% 0.0 mm 0 W/m2
04:17 6.7 °C 5.2 °C 1007.8 hPa WSW 6.4 km/h 6.4 km/h 90% 0.0 mm 0 W/m2
04:22 6.6 °C 5.1 °C 1007.8 hPa West 4.7 km/h 4.8 km/h 90% 0.0 mm 0 W/m2
04:27 6.5 °C 5 °C 1007.8 hPa WNW 4.7 km/h 8 km/h 90% 0.0 mm 0 W/m2
04:32 6.5 °C 5 °C 1008.1 hPa West 3.2 km/h 4.8 km/h 90% 0.0 mm 0 W/m2
04:37 6.4 °C 4.9 °C 1008.1 hPa WSW 3.2 km/h 6.4 km/h 90% 0.0 mm 0 W/m2
04:42 6.4 °C 4.9 °C 1008.1 hPa West 1.4 km/h 3.2 km/h 90% 0.0 mm 0 W/m2
04:47 6.3 °C 4.8 °C 1008.1 hPa Calm   3.2 km/h 90% 0.0 mm 0 W/m2
04:52 6.2 °C 4.7 °C 1008.1 hPa SW 4.7 km/h 14.5 km/h 90% 0.0 mm 0 W/m2
04:58 6.1 °C 4.6 °C 1008.5 hPa West 1.4 km/h 4.8 km/h 90% 0.0 mm 0 W/m2
05:03 6.1 °C 4.7 °C 1008.5 hPa SSW 1.4 km/h 4.8 km/h 91% 0.2 mm 0 W/m2
05:08 6 °C 4.6 °C 1008.5 hPa NW 3.2 km/h 4.8 km/h 91% 0.2 mm 0 W/m2
05:13 5.9 °C 4.5 °C 1008.5 hPa West 4.7 km/h 6.4 km/h 91% 0.2 mm 0 W/m2
05:18 5.9 °C 4.5 °C 1008.5 hPa WSW 3.2 km/h 3.2 km/h 91% 0.2 mm 0 W/m2
05:23 5.8 °C 4.4 °C 1008.5 hPa SW 1.4 km/h 6.4 km/h 91% 0.2 mm 0 W/m2
05:28 5.8 °C 4.4 °C 1008.5 hPa Calm   4.8 km/h 91% 0.2 mm 0 W/m2
05:33 5.9 °C 4.7 °C 1008.8 hPa Calm   3.2 km/h 92% 0.2 mm 0 W/m2
05:38 5.9 °C 4.7 °C 1008.8 hPa WSW 4.7 km/h 11.3 km/h 92% 0.2 mm 0 W/m2
05:43 6.1 °C 4.9 °C 1008.8 hPa WSW 1.4 km/h 3.2 km/h 92% 0.2 mm 0 W/m2
05:48 6.1 °C 4.9 °C 1008.8 hPa West 1.4 km/h 4.8 km/h 92% 0.2 mm 0 W/m2
05:53 6.2 °C 4.8 °C 1008.8 hPa West 1.4 km/h 3.2 km/h 91% 0.2 mm 0 W/m2
05:58 6.2 °C 4.8 °C 1008.8 hPa WSW 1.4 km/h 3.2 km/h 91% 0.2 mm 0 W/m2
06:03 6.2 °C 4.8 °C 1008.8 hPa Calm   1.6 km/h 91% 0.0 mm 0 W/m2
06:08 6.2 °C 4.8 °C 1008.8 hPa WNW 1.4 km/h 1.6 km/h 91% 0.0 mm 0 W/m2
06:13 6.2 °C 4.8 °C 1008.8 hPa WNW 3.2 km/h 3.2 km/h 91% 0.0 mm 0 W/m2
06:18 6.2 °C 4.8 °C 1008.8 hPa West 1.4 km/h 1.6 km/h 91% 0.0 mm 5 W/m2
06:23 6.2 °C 4.8 °C 1008.8 hPa NNW 1.4 km/h 1.6 km/h 91% 0.0 mm 7 W/m2
06:28 6.2 °C 4.8 °C 1008.8 hPa Calm   1.6 km/h 91% 0.0 mm 9 W/m2
06:33 6.2 °C 5 °C 1008.8 hPa NNW 1.4 km/h 3.2 km/h 92% 0.0 mm 21 W/m2
06:38 6.2 °C 5 °C 1008.8 hPa SW 1.4 km/h 11.3 km/h 92% 0.0 mm 39 W/m2
06:43 6.2 °C 5 °C 1008.8 hPa SSW 1.4 km/h 4.8 km/h 92% 0.0 mm 23 W/m2
06:48 6.2 °C 5 °C 1009.1 hPa WSW 3.2 km/h 6.4 km/h 92% 0.0 mm 26 W/m2
06:54 6.2 °C 5 °C 1009.1 hPa SSW 1.4 km/h 4.8 km/h 92% 0.0 mm 21 W/m2
06:59 6.2 °C 5 °C 1009.1 hPa Calm   1.6 km/h 92% 0.0 mm 19 W/m2
07:04 6.2 °C 5 °C 1009.1 hPa WNW 4.7 km/h 4.8 km/h 92% 0.0 mm 35 W/m2
07:09 6.2 °C 5 °C 1009.1 hPa West 1.4 km/h 4.8 km/h 92% 0.0 mm 33 W/m2
07:14 6.2 °C 5 °C 1009.1 hPa SSW 1.4 km/h 8 km/h 92% 0.0 mm 35 W/m2
07:19 6.2 °C 5 °C 1009.1 hPa West 1.4 km/h 3.2 km/h 92% 0.0 mm 49 W/m2
07:24 6.2 °C 5 °C 1009.5 hPa West 1.4 km/h 4.8 km/h 92% 0.0 mm 91 W/m2
07:29 6.3 °C 5.1 °C 1009.1 hPa WNW 3.2 km/h 3.2 km/h 92% 0.0 mm 51 W/m2
07:34 6.3 °C 5.1 °C 1009.5 hPa WNW 3.2 km/h 12.9 km/h 92% 0.0 mm 93 W/m2
07:39 6.3 °C 5.1 °C 1009.5 hPa WNW 1.4 km/h 1.6 km/h 92% 0.0 mm 132 W/m2
07:44 6.5 °C 5.3 °C 1009.5 hPa Calm   8 km/h 92% 0.0 mm 67 W/m2
07:49 6.6 °C 5.4 °C 1009.5 hPa WSW 1.4 km/h 1.6 km/h 92% 0.0 mm 81 W/m2
07:54 6.7 °C 5.3 °C 1009.5 hPa West 6.4 km/h 11.3 km/h 91% 0.0 mm 72 W/m2
07:59 6.8 °C 5.4 °C 1009.5 hPa SE 1.4 km/h 4.8 km/h 91% 0.0 mm 120 W/m2
08:04 6.9 °C 5.5 °C 1009.5 hPa WNW 11.3 km/h 11.3 km/h 91% 0.0 mm 105 W/m2
08:09 7.1 °C 5.7 °C 1009.8 hPa SW 4.7 km/h 6.4 km/h 91% 0.0 mm 294 W/m2
08:14 7.4 °C 6 °C 1009.8 hPa WNW 3.2 km/h 16.1 km/h 91% 0.0 mm 325 W/m2
08:19 7.6 °C 6.1 °C 1009.8 hPa West 9.7 km/h 9.7 km/h 90% 0.0 mm 174 W/m2
08:24 7.7 °C 6 °C 1009.8 hPa West 6.4 km/h 20.9 km/h 89% 0.0 mm 97 W/m2
08:29 7.7 °C 6 °C 1009.8 hPa WNW 4.7 km/h 12.9 km/h 89% 0.0 mm 179 W/m2
08:34 7.7 °C 6 °C 1009.8 hPa SW 3.2 km/h 20.9 km/h 89% 0.0 mm 113 W/m2
08:39 7.7 °C 6 °C 1009.8 hPa West 3.2 km/h 6.4 km/h 89% 0.0 mm 109 W/m2
08:44 7.7 °C 5.8 °C 1009.8 hPa West 3.2 km/h 4.8 km/h 88% 0.0 mm 121 W/m2
08:49 7.8 °C 6.1 °C 1009.8 hPa Calm   4.8 km/h 89% 0.0 mm 353 W/m2
08:55 7.8 °C 6.1 °C 1009.5 hPa NW 3.2 km/h 6.4 km/h 89% 0.0 mm 376 W/m2
09:00 8.1 °C 6.4 °C 1009.8 hPa Calm   3.2 km/h 89% 0.0 mm 434 W/m2
09:05 8.4 °C 6.7 °C 1009.8 hPa West 3.2 km/h 12.9 km/h 89% 0.0 mm 410 W/m2
09:10 8.6 °C 6.7 °C 1009.8 hPa West 3.2 km/h 8 km/h 88% 0.0 mm 466 W/m2
09:15 8.8 °C 6.9 °C 1009.8 hPa WSW 6.4 km/h 8 km/h 88% 0.0 mm 489 W/m2
09:20 8.9 °C 6.7 °C 1009.8 hPa NW 13 km/h 17.7 km/h 86% 0.0 mm 325 W/m2
09:25 8.9 °C 6.7 °C 1009.8 hPa WNW 4.7 km/h 9.7 km/h 86% 0.0 mm 322 W/m2
09:30 8.8 °C 6.6 °C 1010.2 hPa WSW 4.7 km/h 9.7 km/h 86% 0.0 mm 278 W/m2
09:35 9 °C 7 °C 1010.2 hPa West 9.7 km/h 12.9 km/h 87% 0.0 mm 230 W/m2
09:40 9 °C 6.8 °C 1010.2 hPa West 4.7 km/h 14.5 km/h 86% 0.0 mm 190 W/m2
09:45 8.9 °C 6.7 °C 1010.2 hPa WNW 3.2 km/h 9.7 km/h 86% 0.0 mm 207 W/m2
09:50 8.9 °C 6.9 °C 1010.2 hPa West 1.4 km/h 3.2 km/h 87% 0.0 mm 244 W/m2
09:55 9.2 °C 7 °C 1010.2 hPa NW 6.4 km/h 12.9 km/h 86% 0.0 mm 301 W/m2
10:00 9.4 °C 7 °C 1010.2 hPa West 6.4 km/h 9.7 km/h 85% 0.0 mm 295 W/m2
10:05 9.8 °C 7.4 °C 1010.2 hPa WNW 6.4 km/h 8 km/h 85% 0.0 mm 346 W/m2
10:11 10 °C 7.4 °C 1010.2 hPa NW 4.7 km/h 11.3 km/h 84% 0.0 mm 330 W/m2
10:16 10.1 °C 7.2 °C 1010.2 hPa West 9.7 km/h 24.1 km/h 82% 0.0 mm 675 W/m2
10:21 10.3 °C 7.5 °C 1010.2 hPa NW 4.7 km/h 14.5 km/h 83% 0.0 mm 777 W/m2
10:26 10.6 °C 7.5 °C 1010.2 hPa WNW 4.7 km/h 24.1 km/h 81% 0.0 mm 687 W/m2
10:31 10.7 °C 7.2 °C 1010.2 hPa WNW 4.7 km/h 11.3 km/h 79% 0.0 mm 271 W/m2
10:36 10.7 °C 7.2 °C 1010.2 hPa NW 3.2 km/h 14.5 km/h 79% 0.0 mm 199 W/m2
10:41 10.7 °C 7 °C 1010.2 hPa WNW 14.3 km/h 16.1 km/h 78% 0.0 mm 294 W/m2
10:46 10.7 °C 6.8 °C 1010.2 hPa NW 13 km/h 12.9 km/h 77% 0.0 mm 123 W/m2
10:51 10.4 °C 6.5 °C 1010.2 hPa WSW 9.7 km/h 14.5 km/h 77% 0.0 mm 118 W/m2
10:56 10.3 °C 6.8 °C 1010.2 hPa WNW 3.2 km/h 12.9 km/h 79% 0.0 mm 144 W/m2
11:01 10.4 °C 6.7 °C 1010.2 hPa West 4.7 km/h 12.9 km/h 78% 0.0 mm 105 W/m2
11:06 10.6 °C 6.9 °C 1010.2 hPa West 4.7 km/h 11.3 km/h 78% 0.0 mm 190 W/m2
11:11 10.7 °C 7 °C 1010.2 hPa West 13 km/h 12.9 km/h 78% 0.0 mm 237 W/m2
11:16 10.8 °C 6.7 °C 1010.2 hPa ESE 4.7 km/h 9.7 km/h 76% 0.0 mm 318 W/m2
11:21 11 °C 6.5 °C 1010.2 hPa WNW 11.1 km/h 20.9 km/h 74% 0.0 mm 838 W/m2
11:26 11.4 °C 6.7 °C 1010.2 hPa South 6.4 km/h 12.9 km/h 73% 0.0 mm 884 W/m2
11:31 11.6 °C 6.3 °C 1010.2 hPa WSW 11.1 km/h 11.3 km/h 70% 0.0 mm 798 W/m2
11:36 11.9 °C 6.6 °C 1009.8 hPa WNW 6.4 km/h 9.7 km/h 70% 0.0 mm 844 W/m2
11:41 12.1 °C 6.4 °C 1010.2 hPa WNW 4.7 km/h 20.9 km/h 68% 0.0 mm 831 W/m2
11:46 12.1 °C 5.9 °C 1010.2 hPa West 9.7 km/h 24.1 km/h 66% 0.0 mm 816 W/m2
11:51 12.2 °C 5.6 °C 1010.2 hPa West 11.1 km/h 16.1 km/h 64% 0.0 mm 809 W/m2
11:56 12.5 °C 5.6 °C 1010.2 hPa West 20.9 km/h 24.1 km/h 63% 0.0 mm 830 W/m2
12:01 12.6 °C 5.3 °C 1009.8 hPa WSW 13 km/h 25.7 km/h 61% 0.0 mm 911 W/m2
12:06 12.8 °C 5.7 °C 1009.8 hPa WNW 6.4 km/h 17.7 km/h 62% 0.0 mm 939 W/m2
12:11 12.8 °C 5.7 °C 1009.8 hPa NW 3.2 km/h 24.1 km/h 62% 0.0 mm 267 W/m2
12:16 12.8 °C 5.9 °C 1010.2 hPa NW 13 km/h 19.3 km/h 63% 0.0 mm 912 W/m2
12:22 12.9 °C 5.8 °C 1009.8 hPa WSW 7.9 km/h 24.1 km/h 62% 0.0 mm 396 W/m2
12:27 12.9 °C 6.3 °C 1009.8 hPa West 6.4 km/h 16.1 km/h 64% 0.0 mm 271 W/m2
12:32 13 °C 5.4 °C 1009.8 hPa NW 9.7 km/h 22.5 km/h 60% 0.0 mm 346 W/m2
12:37 12.8 °C 5.5 °C 1009.8 hPa West 6.4 km/h 14.5 km/h 61% 0.0 mm 921 W/m2
12:42 12.8 °C 5.5 °C 1010.2 hPa SW 7.9 km/h 16.1 km/h 61% 0.0 mm 327 W/m2
12:47 13.1 °C 6.2 °C 1009.8 hPa NW 22.7 km/h 22.5 km/h 63% 0.0 mm 911 W/m2
12:52 13.1 °C 6 °C 1009.8 hPa NW 11.1 km/h 17.7 km/h 62% 0.0 mm 851 W/m2
12:57 13.2 °C 6.1 °C 1009.8 hPa NW 30.6 km/h 30.6 km/h 62% 0.0 mm 914 W/m2
13:03 13.2 °C 5.8 °C 1009.8 hPa NW 16.3 km/h 25.7 km/h 61% 0.0 mm 278 W/m2
13:08 13.2 °C 5.8 °C 1009.8 hPa WNW 16.3 km/h 22.5 km/h 61% 0.0 mm 403 W/m2
13:13 13.4 °C 6 °C 1009.5 hPa NNW 9.7 km/h 17.7 km/h 61% 0.0 mm 279 W/m2
13:18 13.6 °C 6 °C 1009.8 hPa NW 7.9 km/h 12.9 km/h 60% 0.0 mm 186 W/m2
13:23 13.3 °C 5.5 °C 1010.2 hPa WNW 11.1 km/h 30.6 km/h 59% 0.0 mm 257 W/m2
13:28 13.1 °C 5.5 °C 1010.2 hPa SW 6.4 km/h 17.7 km/h 60% 0.0 mm 900 W/m2
13:33 13.3 °C 5.9 °C 1010.2 hPa WNW 7.9 km/h 30.6 km/h 61% 0.0 mm 1020 W/m2
13:38 13.5 °C 6.1 °C 1010.2 hPa WSW 14.3 km/h 19.3 km/h 61% 0.0 mm 962 W/m2
13:43 13.5 °C 5.9 °C 1010.2 hPa WSW 7.9 km/h 17.7 km/h 60% 0.0 mm 432 W/m2
13:48 13.3 °C 5.7 °C 1010.2 hPa NW 7.9 km/h 25.7 km/h 60% 0.0 mm 527 W/m2
13:53 12.8 °C 6.2 °C 1010.8 hPa WSW 20.9 km/h 24.1 km/h 64% 0.0 mm 109 W/m2
13:58 11.4 °C 5.7 °C 1010.8 hPa WSW 7.9 km/h 19.3 km/h 68% 0.0 mm 160 W/m2
14:03 10.7 °C 6.3 °C 1010.8 hPa WNW 17.7 km/h 24.1 km/h 74% 0.0 mm 882 W/m2
14:08 10.8 °C 6 °C 1010.8 hPa West 19.5 km/h 27.4 km/h 72% 0.0 mm 823 W/m2
14:13 11.1 °C 6 °C 1010.8 hPa WNW 13 km/h 30.6 km/h 71% 0.0 mm 1011 W/m2
14:18 11.1 °C 5.6 °C 1010.8 hPa NNW 17.7 km/h 24.1 km/h 69% 0.0 mm 318 W/m2
14:23 11.3 °C 6 °C 1010.8 hPa West 17.7 km/h 30.6 km/h 70% 0.0 mm 1090 W/m2
14:28 11.8 °C 6.3 °C 1010.8 hPa North 9.7 km/h 16.1 km/h 69% 0.0 mm 367 W/m2
14:33 11.8 °C 5.7 °C 1010.8 hPa WSW 16.3 km/h 22.5 km/h 66% 0.0 mm 292 W/m2
14:38 11.7 °C 5.8 °C 1010.8 hPa WNW 14.3 km/h 24.1 km/h 67% 0.0 mm 376 W/m2
14:43 11.8 °C 5.9 °C 1010.8 hPa WSW 16.3 km/h 20.9 km/h 67% 0.0 mm 874 W/m2
14:48 12 °C 6.1 °C 1010.8 hPa NW 17.7 km/h 20.9 km/h 67% 0.0 mm 374 W/m2
14:53 12 °C 5.8 °C 1011.2 hPa WNW 16.3 km/h 24.1 km/h 66% 0.0 mm 636 W/m2
14:58 11.7 °C 5.6 °C 1011.5 hPa North 19.5 km/h 30.6 km/h 66% 0.0 mm 330 W/m2
15:03 11.2 °C 5.5 °C 1011.9 hPa West 17.7 km/h 24.1 km/h 68% 0.0 mm 262 W/m2
15:08 10.8 °C 5.8 °C 1011.9 hPa WSW 16.3 km/h 19.3 km/h 71% 0.0 mm 232 W/m2
15:13 10.4 °C 5.8 °C 1011.5 hPa WSW 11.1 km/h 16.1 km/h 73% 0.0 mm 260 W/m2
15:18 10.3 °C 5.7 °C 1011.5 hPa WNW 6.4 km/h 16.1 km/h 73% 0.0 mm 253 W/m2
15:23 10.4 °C 6 °C 1011.5 hPa NW 11.1 km/h 16.1 km/h 74% 0.0 mm 432 W/m2
15:28 10.7 °C 6.1 °C 1011.2 hPa WSW 13 km/h 24.1 km/h 73% 0.0 mm 301 W/m2
15:33 10.8 °C 5.8 °C 1011.2 hPa WNW 7.9 km/h 14.5 km/h 71% 0.0 mm 671 W/m2
15:38 11.3 °C 6 °C 1011.2 hPa NW 19.5 km/h 24.1 km/h 70% 0.0 mm 731 W/m2
15:43 11.5 °C 5.6 °C 1011.2 hPa WSW 19.5 km/h 24.1 km/h 67% 0.0 mm 693 W/m2
15:48 11.8 °C 5.4 °C 1011.2 hPa West 20.9 km/h 20.9 km/h 65% 0.0 mm 680 W/m2
15:53 12.2 °C 5.8 °C 1010.8 hPa WNW 7.9 km/h 24.1 km/h 65% 0.0 mm 675 W/m2
15:58 12.6 °C 6 °C 1011.2 hPa WNW 11.1 km/h 17.7 km/h 64% 0.0 mm 668 W/m2
16:03 12.8 °C 5.9 °C 1011.2 hPa WSW 13 km/h 19.3 km/h 63% 0.0 mm 661 W/m2
16:08 13 °C 5.9 °C 1010.8 hPa NW 7.9 km/h 12.9 km/h 62% 0.0 mm 650 W/m2
16:13 13.2 °C 5.4 °C 1010.8 hPa WNW 19.5 km/h 19.3 km/h 59% 0.0 mm 643 W/m2
16:18 13.2 °C 5.6 °C 1011.2 hPa West 4.7 km/h 19.3 km/h 60% 0.0 mm 636 W/m2
16:23 13.5 °C 5.4 °C 1011.2 hPa West 4.7 km/h 24.1 km/h 58% 0.0 mm 654 W/m2
16:28 13.4 °C 5.3 °C 1011.2 hPa West 16.3 km/h 19.3 km/h 58% 0.0 mm 698 W/m2
16:33 13.3 °C 4.2 °C 1011.5 hPa WNW 16.3 km/h 27.4 km/h 54% 0.0 mm 666 W/m2
16:38 13.3 °C 4.7 °C 1011.5 hPa WNW 16.3 km/h 25.7 km/h 56% 0.0 mm 640 W/m2
16:43 13.4 °C 5.1 °C 1011.2 hPa West 13 km/h 27.4 km/h 57% 0.0 mm 638 W/m2
16:48 13.7 °C 5.6 °C 1011.2 hPa West 6.4 km/h 12.9 km/h 58% 0.0 mm 629 W/m2
16:53 14 °C 5.4 °C 1011.2 hPa West 6.4 km/h 19.3 km/h 56% 0.0 mm 585 W/m2
16:58 13.9 °C 5.3 °C 1011.5 hPa WNW 13 km/h 29 km/h 56% 0.0 mm 490 W/m2
17:03 13.7 °C 4.8 °C 1011.5 hPa West 13 km/h 19.3 km/h 55% 0.0 mm 580 W/m2
17:08 14 °C 5.4 °C 1011.5 hPa WNW 13 km/h 29 km/h 56% 0.0 mm 598 W/m2
17:13 14.1 °C 4.9 °C 1011.5 hPa NW 6.4 km/h 22.5 km/h 54% 0.0 mm 575 W/m2
17:18 13.9 °C 5.3 °C 1011.5 hPa NW 14.3 km/h 17.7 km/h 56% 0.0 mm 197 W/m2
17:23 13.6 °C 5.2 °C 1011.5 hPa WSW 13 km/h 22.5 km/h 57% 0.0 mm 207 W/m2
17:28 13.6 °C 5.7 °C 1011.9 hPa West 11.1 km/h 16.1 km/h 59% 0.0 mm 160 W/m2
17:33 13 °C 5.9 °C 1011.9 hPa West 13 km/h 20.9 km/h 62% 0.0 mm 193 W/m2
17:38 12.9 °C 6.5 °C 1011.9 hPa NNE 11.1 km/h 11.3 km/h 65% 0.0 mm 570 W/m2
17:43 13 °C 6.6 °C 1011.9 hPa WNW 14.3 km/h 16.1 km/h 65% 0.0 mm 592 W/m2
17:48 13.1 °C 6.4 °C 1011.9 hPa NNW 9.7 km/h 12.9 km/h 64% 0.0 mm 478 W/m2
17:53 13.4 °C 6.7 °C 1012.2 hPa WNW 3.2 km/h 9.7 km/h 64% 0.0 mm 434 W/m2
17:58 13.7 °C 6.8 °C 1012.2 hPa WNW 7.9 km/h 12.9 km/h 63% 0.0 mm 475 W/m2
18:03 13.6 °C 6.5 °C 1012.2 hPa NW 1.4 km/h 11.3 km/h 62% 0.0 mm 243 W/m2
18:08 13.4 °C 6.3 °C 1012.2 hPa WNW 4.7 km/h 14.5 km/h 62% 0.0 mm 439 W/m2
18:13 13.4 °C 6.5 °C 1012.2 hPa NNW 7.9 km/h 8 km/h 63% 0.0 mm 360 W/m2
18:18 13.6 °C 6.5 °C 1012.2 hPa West 6.4 km/h 14.5 km/h 62% 0.0 mm 338 W/m2
18:23 13.4 °C 6.3 °C 1012.2 hPa WSW 11.1 km/h 14.5 km/h 62% 0.0 mm 329 W/m2
18:28 13.4 °C 6.5 °C 1012.2 hPa WNW 4.7 km/h 6.4 km/h 63% 0.0 mm 315 W/m2
18:33 13.6 °C 6.7 °C 1012.2 hPa North 6.4 km/h 9.7 km/h 63% 0.0 mm 309 W/m2
18:38 13.7 °C 6.5 °C 1012.2 hPa WSW 11.1 km/h 12.9 km/h 62% 0.0 mm 295 W/m2
18:43 13.6 °C 6.5 °C 1012.2 hPa West 13 km/h 12.9 km/h 62% 0.0 mm 271 W/m2
18:48 13.5 °C 6.1 °C 1012.2 hPa West 4.7 km/h 16.1 km/h 61% 0.0 mm 260 W/m2
18:53 13.7 °C 6.1 °C 1012.2 hPa WNW 7.9 km/h 9.7 km/h 60% 0.0 mm 248 W/m2
18:58 13.7 °C 5.8 °C 1012.5 hPa NW 7.9 km/h 12.9 km/h 59% 0.0 mm 232 W/m2
19:03 13.6 °C 6 °C 1012.5 hPa NW 4.7 km/h 12.9 km/h 60% 0.0 mm 218 W/m2
19:08 13.7 °C 6.1 °C 1012.5 hPa WNW 6.4 km/h 11.3 km/h 60% 0.0 mm 204 W/m2
19:13 13.7 °C 6.1 °C 1012.5 hPa West 3.2 km/h 6.4 km/h 60% 0.0 mm 188 W/m2
19:18 13.7 °C 6.1 °C 1012.5 hPa NNW 3.2 km/h 12.9 km/h 60% 0.0 mm 171 W/m2
19:23 13.8 °C 6.4 °C 1012.5 hPa WNW 3.2 km/h 4.8 km/h 61% 0.0 mm 158 W/m2
19:28 13.8 °C 6.4 °C 1012.5 hPa West 6.4 km/h 11.3 km/h 61% 0.0 mm 146 W/m2
19:33 13.6 °C 6.5 °C 1012.5 hPa WNW 4.7 km/h 6.4 km/h 62% 0.0 mm 128 W/m2
19:38 13.6 °C 6.5 °C 1012.5 hPa WSW 6.4 km/h 6.4 km/h 62% 0.0 mm 111 W/m2
19:43 13.6 °C 6.7 °C 1012.5 hPa WSW 3.2 km/h 4.8 km/h 63% 0.0 mm 100 W/m2
19:49 13.6 °C 6.5 °C 1012.5 hPa NW 3.2 km/h 4.8 km/h 62% 0.0 mm 86 W/m2
19:54 13.5 °C 6.6 °C 1012.5 hPa West 3.2 km/h 6.4 km/h 63% 0.0 mm 74 W/m2
19:59 13.4 °C 6.7 °C 1012.9 hPa West 1.4 km/h 4.8 km/h 64% 0.0 mm 63 W/m2
20:04 13.4 °C 7 °C 1012.9 hPa Calm   6.4 km/h 65% 0.0 mm 53 W/m2
20:09 13.3 °C 6.9 °C 1012.9 hPa West 1.4 km/h 6.4 km/h 65% 0.0 mm 37 W/m2
20:14 13.2 °C 7 °C 1012.9 hPa Calm   3.2 km/h 66% 0.0 mm 19 W/m2
20:19 12.9 °C 6.9 °C 1012.9 hPa West 1.4 km/h 6.4 km/h 67% 0.0 mm 18 W/m2
20:24 12.6 °C 7.1 °C 1012.9 hPa West 1.4 km/h 3.2 km/h 69% 0.0 mm 14 W/m2
20:29 12.3 °C 7 °C 1013.2 hPa West 3.2 km/h 3.2 km/h 70% 0.0 mm 14 W/m2
20:34 11.9 °C 7 °C 1013.2 hPa West 1.4 km/h 3.2 km/h 72% 0.0 mm 11 W/m2
20:39 11.6 °C 6.9 °C 1013.2 hPa West 3.2 km/h 3.2 km/h 73% 0.0 mm 11 W/m2
20:44 11.3 °C 6.8 °C 1013.2 hPa West 1.4 km/h 1.6 km/h 74% 0.0 mm 9 W/m2
20:49 11 °C 6.9 °C 1013.2 hPa West 1.4 km/h 1.6 km/h 76% 0.0 mm 5 W/m2
20:54 10.7 °C 6.8 °C 1013.2 hPa West 1.4 km/h 1.6 km/h 77% 0.0 mm 5 W/m2
20:59 10.5 °C 6.8 °C 1013.5 hPa Calm   1.6 km/h 78% 0.0 mm 0 W/m2
21:04 10.2 °C 6.7 °C 1013.2 hPa Calm   3.2 km/h 79% 0.0 mm 0 W/m2
21:09 10 °C 6.7 °C 1013.5 hPa West 1.4 km/h 1.6 km/h 80% 0.0 mm 0 W/m2
21:14 9.8 °C 6.7 °C 1013.5 hPa West 1.4 km/h 3.2 km/h 81% 0.0 mm 0 W/m2
21:19 9.7 °C 6.8 °C 1013.5 hPa Calm   1.6 km/h 82% 0.0 mm 0 W/m2
21:24 9.6 °C 6.7 °C 1013.5 hPa West 1.4 km/h 3.2 km/h 82% 0.0 mm 0 W/m2
21:29 9.4 °C 6.7 °C 1013.5 hPa Calm   1.6 km/h 83% 0.0 mm 0 W/m2
21:34 9.3 °C 6.6 °C 1013.9 hPa Calm     83% 0.0 mm 0 W/m2
21:39 9.2 °C 6.5 °C 1013.9 hPa Calm   1.6 km/h 83% 0.0 mm 0 W/m2
21:44 9 °C 6.3 °C 1014.2 hPa Calm     83% 0.0 mm 0 W/m2
21:49 8.8 °C 6.2 °C 1014.2 hPa Calm     84% 0.0 mm 0 W/m2
21:54 8.7 °C 6.1 °C 1014.2 hPa Calm     84% 0.0 mm 0 W/m2
21:59 8.5 °C 6.1 °C 1014.6 hPa Calm     85% 0.0 mm 0 W/m2
22:04 8.3 °C 5.9 °C 1014.6 hPa Calm     85% 0.0 mm 0 W/m2
22:09 8.2 °C 6 °C 1014.6 hPa Calm     86% 0.0 mm 0 W/m2
22:14 8.1 °C 5.9 °C 1014.6 hPa Calm     86% 0.0 mm 0 W/m2
22:19 7.9 °C 5.7 °C 1014.6 hPa Calm     86% 0.0 mm 0 W/m2
22:25 7.8 °C 5.8 °C 1014.6 hPa Calm     87% 0.0 mm 0 W/m2
22:30 7.7 °C 5.7 °C 1014.6 hPa Calm     87% 0.0 mm 0 W/m2
22:35 7.5 °C 5.6 °C 1014.6 hPa Calm     88% 0.0 mm 0 W/m2
22:40 7.4 °C 5.5 °C 1014.9 hPa Calm     88% 0.0 mm 0 W/m2
22:45 7.3 °C 5.6 °C 1014.9 hPa Calm     89% 0.0 mm 0 W/m2
22:50 7.3 °C 5.6 °C 1014.9 hPa Calm     89% 0.0 mm 0 W/m2
22:55 7.2 °C 5.5 °C 1014.9 hPa Calm     89% 0.0 mm 0 W/m2
23:00 7.1 °C 5.4 °C 1014.9 hPa Calm     89% 0.0 mm 0 W/m2
23:05 6.9 °C 5.2 °C 1014.9 hPa Calm     89% 0.0 mm 0 W/m2
23:10 6.8 °C 5.3 °C 1014.9 hPa Calm     90% 0.0 mm 0 W/m2
23:15 6.8 °C 5.3 °C 1015.2 hPa Calm     90% 0.0 mm 0 W/m2
23:20 6.8 °C 5.3 °C 1015.2 hPa Calm     90% 0.0 mm 0 W/m2
23:25 6.7 °C 5.3 °C 1015.2 hPa Calm     91% 0.0 mm 0 W/m2
23:30 6.6 °C 5.2 °C 1015.2 hPa Calm     91% 0.0 mm 0 W/m2
23:35 6.6 °C 5.2 °C 1015.2 hPa Calm     91% 0.0 mm 0 W/m2
23:40 6.5 °C 5.1 °C 1015.2 hPa Calm     91% 0.0 mm 0 W/m2
23:45 6.4 °C 5 °C 1015.2 hPa Calm     91% 0.0 mm 0 W/m2
23:50 6.4 °C 5.2 °C 1015.2 hPa Calm     92% 0.0 mm 0 W/m2
23:55 6.4 °C 5.2 °C 1015.2 hPa Calm     92% 0.0 mm 0 W/m2
Juneau County Weather
Compliments of Weather Underground - 2 mb